Mount Nebo, West Virginia
Current Conditions -  °F | °C
As of 4:51 AM on Monday 20 Oct 2014 (Local Time) from KBKW Reporting Station
Clear Clear  
Wind Chill: 37°   Ceiling: Unl
Heat Index: 37°   Visibility: 10mi
Dew Point: 33°   Wind: 3mph
Humidity: 86%   Direction: 110°ESE
Pressure: 30.07"   Gusts: NA
Location:  38.2°N, 80.86°W
Report Text: KBKW 200851Z AUTO 11003KT 10SM CLR 03/01 A3007 RMK AO2 SLP188 T00280006 55001 TSNO
Loading
Personal Weather Stations






























Interactive Weather Map New forecast layout! Learn more

10-Day Weather Forecast

Advertisements
Track Severe Weather on mobile